Time;durP1;ratioP1;P1;durP2;ratioP2;P2;SDS_P1;SDS_P2;PMS_P1;PMS_P2;Temp;Humidity;BMP_temperature;BMP_pressure;BME280_temperature;BME280_humidity;BME280_pressure;Samples;Min_cycle;Max_cycle;Signal;HPM_P1;HPM_P2
2023/06/15 00:02:10;;;;;;;4.53;1.52;;;23.10;55.60;;;;;;7406755;19;19926;-72
2023/06/15 00:04:41;;;;;;;;;;;23.10;55.60;;;;;;7409995;19;19933;-72
2023/06/15 00:07:12;;;;;;;4.28;1.50;;;23.10;55.70;;;;;;7405769;19;19929;-72
2023/06/15 00:09:43;;;;;;;3.60;1.25;;;23.10;55.60;;;;;;7407763;19;19931;-73
2023/06/15 00:12:16;;;;;;;5.32;2.42;;;23.10;55.70;;;;;;7403845;19;19923;-69
2023/06/15 00:14:46;;;;;;;4.13;1.65;;;23.10;55.70;;;;;;7404705;19;19931;-72
2023/06/15 00:17:16;;;;;;;3.70;1.33;;;23.00;55.70;;;;;;7406704;19;19950;-73
2023/06/15 00:19:48;;;;;;;4.03;1.30;;;23.00;55.80;;;;;;7406412;19;19924;-73
2023/06/15 00:22:18;;;;;;;3.60;1.50;;;23.00;55.80;;;;;;7407176;19;19946;-69
2023/06/15 00:24:47;;;;;;;4.78;2.35;;;23.00;55.90;;;;;;7404879;19;19987;-70
2023/06/15 00:27:17;;;;;;;5.13;1.65;;;23.00;56.00;;;;;;7407119;19;20355;-70
2023/06/15 00:29:47;;;;;;;5.00;1.60;;;22.90;56.10;;;;;;7406178;19;19918;-70
2023/06/15 00:32:20;;;;;;;3.97;2.00;;;22.90;56.20;;;;;;7407397;19;19926;-70
2023/06/15 00:34:54;;;;;;;4.40;1.85;;;22.90;56.30;;;;;;7405822;19;19914;-71
2023/06/15 00:37:24;;;;;;;6.03;1.48;;;22.90;56.50;;;;;;7406418;19;19919;-70
2023/06/15 00:39:54;;;;;;;5.35;1.80;;;22.80;56.40;;;;;;7406933;19;19950;-70
2023/06/15 00:42:26;;;;;;;2.95;1.73;;;22.80;56.50;;;;;;7406060;19;20156;-70
2023/06/15 00:44:56;;;;;;;3.88;1.45;;;22.80;56.70;;;;;;7406514;19;20395;-70
2023/06/15 00:47:27;;;;;;;4.78;1.83;;;22.80;56.80;;;;;;7407028;19;19946;-70
2023/06/15 00:50:00;;;;;;;3.80;2.22;;;22.80;56.90;;;;;;7407844;19;20280;-70
2023/06/15 00:52:34;;;;;;;4.57;1.75;;;22.80;57.10;;;;;;7402773;19;19943;-70
2023/06/15 00:55:03;;;;;;;5.53;1.67;;;22.80;57.10;;;;;;7402516;19;19928;-70
2023/06/15 00:57:34;;;;;;;4.88;1.98;;;22.80;57.20;;;;;;7402263;19;19958;-70
2023/06/15 01:00:09;;;;;;;3.95;2.63;;;22.70;57.30;;;;;;7403731;19;21114;-71
2023/06/15 01:02:41;;;;;;;5.85;3.00;;;22.70;57.40;;;;;;7402239;19;20279;-70
2023/06/15 01:05:16;;;;;;;5.93;2.70;;;22.70;57.50;;;;;;7403422;19;20284;-70
2023/06/15 01:07:47;;;;;;;5.72;2.78;;;22.70;57.50;;;;;;7404916;19;20288;-71
2023/06/15 01:10:18;;;;;;;4.05;1.83;;;22.70;57.60;;;;;;7404369;19;19919;-71
2023/06/15 01:12:50;;;;;;;5.38;2.55;;;22.70;57.70;;;;;;7402772;19;19929;-72
2023/06/15 01:15:20;;;;;;;3.85;1.52;;;22.60;57.80;;;;;;7404851;19;19918;-71
2023/06/15 01:17:53;;;;;;;5.07;1.88;;;22.70;57.90;;;;;;7405143;19;20002;-71
2023/06/15 01:20:38;;;;;;;4.85;1.95;;;22.60;57.90;;;;;;7405358;19;20002;-72
2023/06/15 01:23:25;;;;;;;3.67;1.88;;;22.70;58.10;;;;;;7407094;19;19950;-72
2023/06/15 01:26:08;;;;;;;3.72;1.70;;;22.60;58.10;;;;;;7404054;19;19922;-74
2023/06/15 01:28:40;;;;;;;5.60;1.73;;;22.60;58.20;;;;;;7403522;19;19982;-73
2023/06/15 01:31:10;;;;;;;5.40;1.90;;;22.60;58.20;;;;;;7406520;19;19923;-74
2023/06/15 01:33:47;;;;;;;3.33;1.45;;;22.50;58.30;;;;;;7404718;19;20340;-74
2023/06/15 01:36:16;;;;;;;6.22;1.92;;;22.60;58.50;;;;;;7405676;19;19929;-71
2023/06/15 01:38:46;;;;;;;5.07;2.05;;;22.50;59.20;;;;;;7404012;19;19921;-73
2023/06/15 01:41:19;;;;;;;4.53;1.75;;;22.50;58.50;;;;;;7406805;19;19926;-72
2023/06/15 01:43:49;;;;;;;5.85;2.03;;;22.50;58.70;;;;;;7404518;19;19974;-72
2023/06/15 01:46:18;;;;;;;3.50;1.88;;;22.50;58.70;;;;;;7405730;19;19985;-72
2023/06/15 01:48:47;;;;;;;6.28;2.10;;;22.50;58.70;;;;;;7405201;19;19928;-70
2023/06/15 01:51:16;;;;;;;;;;;22.50;58.80;;;;;;7405587;19;20368;-70
2023/06/15 01:53:46;;;;;;;5.43;2.28;;;22.50;58.90;;;;;;7403712;19;19918;-70
2023/06/15 01:56:17;;;;;;;4.03;1.77;;;22.50;59.00;;;;;;7405290;19;19926;-70
2023/06/15 01:58:47;;;;;;;3.55;2.10;;;22.40;59.00;;;;;;7403964;19;19955;-70
2023/06/15 02:01:17;;;;;;;6.10;1.80;;;22.40;59.20;;;;;;7403673;19;19942;-68
2023/06/15 02:03:46;;;;;;;4.15;1.80;;;22.40;59.30;;;;;;7405647;19;19922;-70
2023/06/15 02:06:15;;;;;;;6.15;2.72;;;22.40;59.50;;;;;;7402908;19;19923;-73
2023/06/15 02:08:44;;;;;;;5.07;2.28;;;22.40;59.60;;;;;;7403104;19;19939;-71
2023/06/15 02:11:18;;;;;;;5.15;2.05;;;22.30;59.70;;;;;;7403120;19;19914;-71
2023/06/15 02:13:48;;;;;;;7.32;3.00;;;22.30;59.70;;;;;;7401924;19;20270;-71
2023/06/15 02:16:19;;;;;;;5.20;2.00;;;22.30;59.70;;;;;;7400079;19;19926;-71
2023/06/15 02:18:48;;;;;;;6.55;2.85;;;22.30;59.80;;;;;;7402010;19;19927;-72
2023/06/15 02:21:17;;;;;;;7.82;2.00;;;22.30;59.80;;;;;;7403906;19;19926;-71
2023/06/15 02:23:47;;;;;;;3.90;1.20;;;22.30;59.80;;;;;;7400728;19;19933;-71
2023/06/15 02:26:18;;;;;;;3.90;1.95;;;22.30;60.00;;;;;;7403645;19;19922;-71
2023/06/15 02:28:47;;;;;;;6.43;1.90;;;22.20;59.90;;;;;;7402079;19;19914;-71
2023/06/15 02:31:16;;;;;;;3.83;2.00;;;22.20;59.90;;;;;;7401730;19;19928;-71
2023/06/15 02:33:45;;;;;;;5.93;2.20;;;22.20;60.00;;;;;;7403432;19;19926;-72
2023/06/15 02:36:19;;;;;;;5.97;1.83;;;22.20;60.00;;;;;;7400213;19;19927;-71
2023/06/15 02:38:48;;;;;;;4.05;1.85;;;22.20;60.10;;;;;;7400778;19;19931;-71
2023/06/15 02:41:20;;;;;;;4.18;1.88;;;22.20;60.10;;;;;;7403080;19;19918;-71
2023/06/15 02:43:49;;;;;;;4.30;1.92;;;22.20;60.10;;;;;;7402728;19;20376;-71
2023/06/15 02:46:18;;;;;;;3.47;1.90;;;22.20;60.10;;;;;;7401130;19;20064;-71
2023/06/15 02:48:51;;;;;;;4.65;1.70;;;22.10;60.10;;;;;;7400463;19;19923;-71
2023/06/15 02:51:21;;;;;;;4.15;1.63;;;22.10;60.10;;;;;;7400527;19;19953;-71
2023/06/15 02:53:50;;;;;;;4.35;1.83;;;22.10;60.20;;;;;;7400358;19;19921;-71
2023/06/15 02:56:22;;;;;;;4.07;1.85;;;22.10;60.20;;;;;;7401300;19;19922;-72
2023/06/15 02:58:53;;;;;;;6.15;1.77;;;22.10;60.20;;;;;;7400841;19;19982;-72
2023/06/15 03:01:23;;;;;;;5.45;3.25;;;22.10;60.20;;;;;;7402476;19;20601;-70
2023/06/15 03:03:51;;;;;;;;;;;22.10;60.30;;;;;;7404149;19;19927;-71
2023/06/15 03:06:21;;;;;;;6.00;2.10;;;22.10;60.30;;;;;;7400057;19;20579;-71
2023/06/15 03:08:50;;;;;;;;;;;22.00;60.20;;;;;;7402052;19;20014;-71
2023/06/15 03:11:22;;;;;;;4.68;1.77;;;22.00;60.20;;;;;;7400537;19;19974;-71
2023/06/15 03:13:53;;;;;;;4.10;1.95;;;22.00;60.20;;;;;;7399700;19;19932;-71
2023/06/15 03:16:25;;;;;;;4.68;1.55;;;22.00;60.20;;;;;;7400547;19;19915;-71
2023/06/15 03:18:54;;;;;;;7.25;3.78;;;22.00;60.20;;;;;;7403038;19;19978;-71
2023/06/15 03:21:24;;;;;;;5.85;2.20;;;22.00;60.40;;;;;;7402627;19;19933;-71
2023/06/15 03:23:53;;;;;;;3.50;1.92;;;21.90;60.40;;;;;;7401606;19;20455;-72
2023/06/15 03:26:26;;;;;;;4.97;2.13;;;21.90;60.40;;;;;;7401376;19;19997;-71
2023/06/15 03:28:58;;;;;;;5.85;2.10;;;21.90;60.50;;;;;;7402159;19;19978;-71
2023/06/15 03:31:28;;;;;;;5.75;2.40;;;21.90;60.50;;;;;;7402908;19;19918;-71
2023/06/15 03:33:58;;;;;;;4.10;2.05;;;21.90;60.50;;;;;;7403800;19;19918;-72
2023/06/15 03:36:29;;;;;;;6.65;3.33;;;21.80;60.40;;;;;;7410467;19;20396;-72
2023/06/15 03:38:58;;;;;;;5.68;3.35;;;21.80;60.40;;;;;;7409198;19;20318;-71
2023/06/15 03:41:30;;;;;;;;;;;21.90;60.50;;;;;;7411134;19;20332;-71
2023/06/15 03:43:59;;;;;;;3.83;1.90;;;21.80;60.10;;;;;;7407222;19;20030;-71
2023/06/15 03:46:28;;;;;;;6.00;1.98;;;21.90;60.30;;;;;;7407987;19;20335;-71
2023/06/15 03:48:57;;;;;;;5.55;2.45;;;21.80;60.20;;;;;;7408083;19;19998;-71
2023/06/15 03:51:27;;;;;;;4.50;2.97;;;21.80;60.10;;;;;;7407940;19;20334;-71
2023/06/15 03:53:56;;;;;;;5.50;2.15;;;21.80;60.10;;;;;;7407136;19;19981;-71
2023/06/15 03:56:25;;;;;;;4.32;1.95;;;21.80;60.00;;;;;;7407625;19;20354;-71
2023/06/15 03:58:56;;;;;;;5.82;1.65;;;21.80;60.00;;;;;;7407797;19;19987;-71
2023/06/15 04:01:25;;;;;;;6.68;1.80;;;21.80;59.90;;;;;;7406432;19;19915;-71
2023/06/15 04:03:55;;;;;;;4.72;2.47;;;21.80;59.90;;;;;;7406587;19;19990;-71
2023/06/15 04:06:27;;;;;;;4.68;2.22;;;21.80;59.80;;;;;;7407096;19;19978;-71
2023/06/15 04:08:56;;;;;;;4.57;2.33;;;21.80;59.70;;;;;;7406929;19;19926;-71
2023/06/15 04:11:26;;;;;;;4.00;1.95;;;21.80;59.60;;;;;;7406172;19;19970;-70
2023/06/15 04:13:58;;;;;;;5.38;3.30;;;21.70;59.50;;;;;;7404621;19;19950;-71
2023/06/15 04:16:27;;;;;;;4.13;2.03;;;21.70;59.50;;;;;;7402941;19;20354;-71
2023/06/15 04:18:57;;;;;;;4.70;2.08;;;21.80;59.60;;;;;;7404997;19;19922;-71
2023/06/15 04:21:26;;;;;;;7.32;2.60;;;21.70;59.50;;;;;;7407682;19;19918;-71
2023/06/15 04:23:55;;;;;;;3.53;1.60;;;21.70;59.50;;;;;;7407923;19;19922;-70
2023/06/15 04:26:24;;;;;;;;;;;21.70;59.70;;;;;;7407858;19;19929;-70
2023/06/15 04:28:53;;;;;;;6.03;1.95;;;21.70;59.70;;;;;;7406695;19;19994;-70
2023/06/15 04:31:24;;;;;;;6.60;1.88;;;21.70;59.60;;;;;;7406805;19;19922;-70
2023/06/15 04:33:58;;;;;;;5.50;2.13;;;21.80;59.70;;;;;;7407444;19;19919;-71
2023/06/15 04:36:27;;;;;;;4.97;3.28;;;21.80;59.60;;;;;;7407645;19;19948;-70
2023/06/15 04:38:57;;;;;;;5.40;2.45;;;21.70;59.70;;;;;;7406408;19;19915;-70
2023/06/15 04:41:27;;;;;;;4.95;3.00;;;21.80;59.70;;;;;;7407384;19;20367;-70
2023/06/15 04:43:56;;;;;;;5.45;2.22;;;21.80;59.70;;;;;;7406442;19;19918;-70
2023/06/15 04:46:29;;;;;;;4.45;2.45;;;21.80;59.80;;;;;;7404233;19;19920;-70
2023/06/15 04:49:00;;;;;;;5.47;1.92;;;21.70;59.70;;;;;;7405123;19;19918;-70
2023/06/15 04:51:31;;;;;;;5.47;2.85;;;21.70;59.60;;;;;;7406024;19;19922;-70
2023/06/15 04:54:00;;;;;;;5.45;2.10;;;21.70;59.60;;;;;;7404861;19;20006;-70
2023/06/15 04:56:29;;;;;;;6.90;1.90;;;21.70;59.60;;;;;;7406167;19;19926;-70
2023/06/15 04:58:58;;;;;;;3.97;1.70;;;21.80;59.70;;;;;;7406954;19;19942;-70
2023/06/15 05:01:29;;;;;;;4.05;2.28;;;21.70;59.60;;;;;;7404231;19;19970;-70
2023/06/15 05:03:59;;;;;;;5.85;1.75;;;21.70;59.70;;;;;;7406003;19;19935;-70
2023/06/15 05:06:28;;;;;;;4.75;2.30;;;21.70;59.70;;;;;;7405740;19;19926;-70
2023/06/15 05:08:57;;;;;;;3.70;1.50;;;21.70;59.90;;;;;;7404967;19;19982;-70
2023/06/15 05:11:27;;;;;;;4.97;1.63;;;21.80;59.90;;;;;;7404056;19;19919;-70
2023/06/15 05:13:57;;;;;;;6.22;2.40;;;21.70;59.90;;;;;;7404923;19;19926;-70
2023/06/15 05:16:29;;;;;;;5.78;3.33;;;21.70;60.00;;;;;;7404065;19;20272;-71
2023/06/15 05:18:57;;;;;;;5.47;2.05;;;21.80;60.10;;;;;;7405360;19;21706;-70
2023/06/15 05:21:26;;;;;;;7.45;3.35;;;21.80;60.30;;;;;;7403443;19;19930;-69
2023/06/15 05:23:55;;;;;;;5.90;2.05;;;21.80;60.40;;;;;;7405026;19;20340;-70
2023/06/15 05:26:25;;;;;;;5.28;2.38;;;21.80;60.40;;;;;;7399395;19;19990;-70
2023/06/15 05:28:54;;;;;;;5.75;2.28;;;21.80;60.40;;;;;;7404923;19;20525;-70
2023/06/15 05:31:24;;;;;;;3.97;1.65;;;21.80;60.40;;;;;;7404373;19;19915;-70
2023/06/15 05:33:56;;;;;;;5.10;2.42;;;21.80;61.10;;;;;;7404813;19;19929;-70
2023/06/15 05:36:30;;;;;;;3.97;2.05;;;21.80;60.60;;;;;;7404788;19;20359;-71
2023/06/15 05:38:59;;;;;;;4.85;2.17;;;21.90;60.70;;;;;;7405920;19;19914;-72
2023/06/15 05:41:28;;;;;;;3.60;1.90;;;21.90;60.70;;;;;;7405066;19;19923;-71
2023/06/15 05:43:57;;;;;;;4.05;2.00;;;21.90;60.80;;;;;;7404984;19;20336;-71
2023/06/15 05:46:26;;;;;;;6.75;2.92;;;21.90;60.80;;;;;;7403202;19;20273;-70
2023/06/15 05:48:58;;;;;;;3.90;1.73;;;22.00;60.80;;;;;;7400781;19;19978;-71
2023/06/15 05:51:27;;;;;;;4.35;1.60;;;22.00;60.70;;;;;;7401125;19;19927;-71
2023/06/15 05:53:56;;;;;;;;;;;22.00;60.70;;;;;;7405077;19;20009;-70
2023/06/15 05:56:26;;;;;;;3.28;1.25;;;22.00;60.70;;;;;;7399216;19;19974;-70
2023/06/15 05:58:56;;;;;;;5.82;1.60;;;22.10;60.40;;;;;;7404264;19;19931;-70
2023/06/15 06:01:25;;;;;;;3.20;1.40;;;22.10;60.30;;;;;;7401613;19;19918;-70
2023/06/15 06:03:56;;;;;;;5.00;2.40;;;22.10;60.30;;;;;;7396333;19;20253;-70
2023/06/15 06:06:25;;;;;;;3.60;1.58;;;22.20;60.30;;;;;;7403071;19;19914;-71
2023/06/15 06:08:54;;;;;;;3.58;1.77;;;22.20;60.20;;;;;;7402771;19;20323;-71
2023/06/15 06:11:24;;;;;;;3.75;1.67;;;22.20;60.30;;;;;;7402776;19;19926;-71
2023/06/15 06:13:55;;;;;;;3.85;2.65;;;22.30;60.30;;;;;;7403064;19;20314;-71
2023/06/15 06:16:24;;;;;;;3.40;1.48;;;22.30;60.20;;;;;;7399414;19;19922;-71
2023/06/15 06:18:54;;;;;;;4.95;1.50;;;22.30;60.10;;;;;;7404539;19;19947;-71
2023/06/15 06:21:25;;;;;;;;;;;22.30;60.00;;;;;;7406741;19;19918;-70
2023/06/15 06:23:55;;;;;;;3.65;1.30;;;22.30;59.90;;;;;;7400781;19;19947;-71
2023/06/15 06:26:24;;;;;;;3.75;1.63;;;22.40;59.90;;;;;;7402197;19;19976;-71
2023/06/15 06:28:53;;;;;;;5.00;2.75;;;22.40;59.90;;;;;;7403090;19;20514;-71
2023/06/15 06:31:23;;;;;;;3.88;2.70;;;22.40;59.80;;;;;;7403299;19;19931;-71
2023/06/15 06:33:52;;;;;;;5.82;2.33;;;22.40;59.70;;;;;;7402246;19;19922;-71
2023/06/15 06:36:21;;;;;;;3.15;1.20;;;22.40;59.60;;;;;;7401223;19;19978;-71
2023/06/15 06:38:52;;;;;;;3.83;1.83;;;22.50;59.60;;;;;;7406458;19;19922;-71
2023/06/15 06:41:21;;;;;;;3.45;1.92;;;22.50;59.60;;;;;;7405575;19;19915;-71
2023/06/15 06:43:50;;;;;;;3.35;1.50;;;22.50;59.60;;;;;;7403009;19;19987;-72
2023/06/15 06:46:22;;;;;;;3.08;1.33;;;22.50;59.50;;;;;;7403176;19;19939;-71
2023/06/15 06:48:52;;;;;;;5.22;2.72;;;22.60;60.20;;;;;;7402432;19;19923;-71
2023/06/15 06:51:21;;;;;;;4.18;1.48;;;22.60;59.40;;;;;;7404258;19;20383;-72
2023/06/15 06:53:53;;;;;;;4.47;1.33;;;22.60;59.30;;;;;;7401762;19;19922;-71
2023/06/15 06:56:22;;;;;;;3.40;1.40;;;22.60;59.10;;;;;;7402155;19;19930;-71
2023/06/15 06:58:51;;;;;;;;;;;22.60;58.90;;;;;;7405826;19;19929;-71
2023/06/15 07:01:20;;;;;;;4.70;2.10;;;22.70;58.90;;;;;;7401344;19;19910;-71
2023/06/15 07:03:49;;;;;;;4.00;1.55;;;22.70;58.80;;;;;;7402864;19;19918;-72
2023/06/15 07:06:19;;;;;;;3.67;1.70;;;22.70;58.60;;;;;;7401902;19;19974;-72
2023/06/15 07:08:48;;;;;;;3.22;1.50;;;22.70;58.40;;;;;;7401590;19;19918;-72
2023/06/15 07:11:20;;;;;;;3.25;1.50;;;22.70;58.30;;;;;;7402497;19;19922;-71
2023/06/15 07:13:49;;;;;;;3.65;1.65;;;22.80;58.20;;;;;;7401704;19;19922;-71
2023/06/15 07:16:19;;;;;;;3.42;1.52;;;22.80;58.10;;;;;;7401559;19;19919;-72
2023/06/15 07:18:48;;;;;;;5.75;2.88;;;22.80;58.00;;;;;;7402691;19;20288;-71
2023/06/15 07:21:17;;;;;;;2.63;1.52;;;22.90;57.90;;;;;;7402064;19;19930;-72
2023/06/15 07:23:46;;;;;;;4.72;1.48;;;22.90;57.70;;;;;;7402717;19;19930;-72
2023/06/15 07:26:15;;;;;;;4.05;1.40;;;22.90;57.70;;;;;;7401754;19;20473;-71
2023/06/15 07:28:47;;;;;;;3.33;1.67;;;22.90;57.60;;;;;;7400739;19;20447;-72
2023/06/15 07:31:16;;;;;;;4.40;1.45;;;23.00;57.60;;;;;;7403309;19;19918;-72
2023/06/15 07:33:45;;;;;;;3.97;1.70;;;23.00;57.60;;;;;;7401658;19;19995;-71
2023/06/15 07:36:14;;;;;;;2.95;1.40;;;23.00;57.50;;;;;;7399462;19;20336;-72
2023/06/15 07:38:43;;;;;;;4.03;1.83;;;23.00;57.40;;;;;;7401649;19;19940;-72
2023/06/15 07:41:12;;;;;;;4.65;1.60;;;23.00;57.30;;;;;;7402344;19;19923;-71
2023/06/15 07:43:41;;;;;;;3.28;1.40;;;23.00;57.30;;;;;;7401225;19;19922;-72
2023/06/15 07:46:13;;;;;;;5.25;2.08;;;23.10;57.20;;;;;;7401874;19;20345;-72
2023/06/15 07:48:42;;;;;;;3.92;1.50;;;23.10;57.10;;;;;;7402497;19;19919;-71
2023/06/15 07:51:11;;;;;;;4.38;1.42;;;23.10;57.00;;;;;;7400614;19;19982;-72
2023/06/15 07:53:40;;;;;;;5.55;1.67;;;23.20;57.10;;;;;;7402381;19;19925;-72
2023/06/15 07:56:09;;;;;;;5.10;2.15;;;23.20;56.90;;;;;;7395946;19;19918;-73
2023/06/15 07:58:39;;;;;;;4.88;1.67;;;23.20;56.80;;;;;;7400797;19;19936;-71
2023/06/15 08:01:07;;;;;;;3.28;1.77;;;23.20;56.60;;;;;;7401094;19;19926;-72
2023/06/15 08:03:39;;;;;;;5.47;1.55;;;23.30;56.50;;;;;;7400588;19;19926;-72
2023/06/15 08:06:08;;;;;;;3.30;1.35;;;23.20;56.30;;;;;;7400479;19;19982;-72
2023/06/15 08:08:37;;;;;;;3.78;1.35;;;23.30;56.30;;;;;;7401144;19;19922;-71
2023/06/15 08:11:07;;;;;;;5.63;2.63;;;23.40;56.20;;;;;;7400400;19;20463;-72
2023/06/15 08:13:37;;;;;;;4.60;1.52;;;23.40;56.10;;;;;;7394924;19;20328;-71
2023/06/15 08:16:07;;;;;;;3.80;1.33;;;23.40;56.00;;;;;;7397055;19;19915;-71
2023/06/15 08:18:40;;;;;;;4.30;1.60;;;23.40;55.90;;;;;;7398794;19;19974;-71
2023/06/15 08:21:09;;;;;;;4.32;1.35;;;23.40;55.70;;;;;;7403860;19;19919;-71
2023/06/15 08:23:38;;;;;;;;;;;23.40;55.50;;;;;;7404107;19;19935;-71
2023/06/15 08:26:07;;;;;;;5.35;1.85;;;23.50;55.50;;;;;;7405756;19;19918;-72
2023/06/15 08:28:36;;;;;;;3.67;3.03;;;23.50;55.50;;;;;;7405722;19;19922;-72
2023/06/15 08:31:06;;;;;;;5.72;2.90;;;23.50;55.10;;;;;;7407957;19;19935;-72
2023/06/15 08:33:38;;;;;;;3.63;1.52;;;23.50;55.00;;;;;;7406460;19;19939;-72
2023/06/15 08:36:11;;;;;;;6.43;1.92;;;23.50;55.00;;;;;;7406323;19;19997;-72
2023/06/15 08:38:40;;;;;;;5.57;2.33;;;23.50;54.80;;;;;;7406850;19;19990;-72
2023/06/15 08:41:09;;;;;;;3.45;1.40;;;23.50;54.80;;;;;;7406080;19;20332;-72
2023/06/15 08:43:39;;;;;;;3.35;1.70;;;23.50;54.70;;;;;;7405856;19;19947;-72
2023/06/15 08:46:08;;;;;;;3.60;1.98;;;23.60;54.70;;;;;;7406825;19;19918;-73
2023/06/15 08:48:40;;;;;;;5.20;2.05;;;23.60;54.60;;;;;;7406259;19;19942;-72
2023/06/15 08:51:12;;;;;;;4.47;1.80;;;23.60;54.60;;;;;;7407193;19;19922;-72
2023/06/15 08:53:42;;;;;;;4.32;1.67;;;23.60;54.50;;;;;;7407027;19;19925;-72
2023/06/15 08:56:13;;;;;;;5.65;1.92;;;23.60;54.40;;;;;;7401884;19;19922;-72
2023/06/15 08:58:49;;;;;;;4.10;1.98;;;23.70;54.40;;;;;;7405885;19;20352;-72
2023/06/15 09:01:22;;;;;;;5.25;2.28;;;23.70;54.20;;;;;;7406599;19;19926;-72
2023/06/15 09:03:54;;;;;;;4.55;1.85;;;23.70;54.00;;;;;;7407133;19;19918;-72
2023/06/15 09:06:26;;;;;;;5.13;2.28;;;23.70;54.00;;;;;;7404967;19;19922;-71
2023/06/15 09:08:55;;;;;;;5.10;2.25;;;23.70;54.00;;;;;;7407391;19;19918;-71
2023/06/15 09:11:26;;;;;;;3.50;1.95;;;23.80;54.00;;;;;;7406333;19;19927;-72
2023/06/15 09:13:57;;;;;;;3.35;2.33;;;23.80;53.90;;;;;;7403850;19;19918;-72
2023/06/15 09:16:27;;;;;;;3.88;1.88;;;23.80;53.70;;;;;;7402473;19;19944;-72
2023/06/15 09:18:57;;;;;;;4.70;1.55;;;23.80;53.50;;;;;;7406481;19;19918;-72
2023/06/15 09:21:30;;;;;;;5.20;2.72;;;23.80;53.30;;;;;;7404536;19;19995;-71
2023/06/15 09:24:07;;;;;;;3.92;2.95;;;23.80;53.00;;;;;;7406190;19;19926;-71
2023/06/15 09:26:36;;;;;;;4.07;1.75;;;23.80;52.80;;;;;;7403683;19;19918;-72
2023/06/15 09:29:12;;;;;;;4.80;1.83;;;23.80;52.80;;;;;;7403441;19;19950;-73
2023/06/15 09:31:42;;;;;;;4.07;2.42;;;23.90;52.60;;;;;;7403311;19;19982;-72
2023/06/15 09:34:13;;;;;;;2.47;1.50;;;23.90;52.50;;;;;;7404592;19;19923;-73
2023/06/15 09:36:48;;;;;;;3.53;3.17;;;23.90;52.20;;;;;;7404731;19;19919;-72
2023/06/15 09:39:18;;;;;;;5.13;1.63;;;23.90;52.10;;;;;;7405831;19;19919;-72
2023/06/15 09:41:56;;;;;;;3.40;1.90;;;23.90;52.00;;;;;;7404780;19;19918;-72
2023/06/15 09:44:26;;;;;;;3.58;1.42;;;24.00;51.60;;;;;;7403085;19;19919;-72
2023/06/15 09:46:56;;;;;;;5.35;2.08;;;24.00;51.40;;;;;;7404968;19;19919;-72
2023/06/15 09:49:27;;;;;;;4.88;2.05;;;24.00;51.10;;;;;;7406306;19;19923;-72
2023/06/15 09:52:00;;;;;;;5.18;1.52;;;24.10;50.80;;;;;;7402605;19;19919;-72
2023/06/15 09:54:32;;;;;;;4.60;1.90;;;24.10;50.60;;;;;;7404644;19;19952;-70
2023/06/15 09:57:02;;;;;;;5.13;1.80;;;24.10;50.50;;;;;;7404730;19;19974;-71
2023/06/15 09:59:31;;;;;;;7.85;2.55;;;24.20;50.20;;;;;;7406246;19;20290;-71
2023/06/15 10:02:02;;;;;;;4.80;1.60;;;24.20;49.90;;;;;;7404371;19;19978;-71
2023/06/15 10:04:34;;;;;;;6.43;2.10;;;24.30;50.00;;;;;;7404425;19;19982;-66
2023/06/15 10:07:08;;;;;;;4.10;2.08;;;24.30;50.10;;;;;;7404957;19;19935;-71
2023/06/15 10:09:44;;;;;;;5.20;1.67;;;24.30;50.00;;;;;;7406721;19;19914;-70
2023/06/15 10:12:17;;;;;;;3.55;2.35;;;24.40;50.00;;;;;;7403772;19;20268;-74
2023/06/15 10:14:54;;;;;;;5.45;1.77;;;24.40;50.10;;;;;;7405531;19;20392;-75
2023/06/15 10:17:33;;;;;;;3.47;1.77;;;24.40;50.10;;;;;;7397104;19;20340;-75
2023/06/15 10:20:08;;;;;;;3.63;1.90;;;24.40;50.00;;;;;;7404148;19;20392;-75
2023/06/15 10:22:48;;;;;;;4.18;1.63;;;24.40;50.00;;;;;;7405148;19;19930;-75
2023/06/15 10:25:18;;;;;;;5.88;1.90;;;24.50;50.00;;;;;;7403867;19;19986;-75
2023/06/15 10:27:47;;;;;;;3.45;1.55;;;24.50;50.10;;;;;;7403706;19;19928;-74
2023/06/15 10:30:23;;;;;;;4.63;1.80;;;24.50;50.20;;;;;;7404447;19;19942;-75
2023/06/15 10:32:56;;;;;;;;;;;24.60;50.10;;;;;;7407387;19;19918;-74
2023/06/15 10:35:32;;;;;;;5.15;1.73;;;24.60;50.00;;;;;;7404943;19;19923;-74
2023/06/15 10:38:18;;;;;;;3.85;1.80;;;24.70;49.60;;;;;;7401860;19;19922;-74
2023/06/15 10:40:50;;;;;;;3.25;1.65;;;24.70;49.00;;;;;;7404990;19;19957;-75
2023/06/15 10:43:20;;;;;;;2.95;1.65;;;24.70;49.00;;;;;;7401388;19;19918;-75
2023/06/15 10:45:50;;;;;;;2.85;1.65;;;24.80;49.10;;;;;;7405300;19;19914;-74
2023/06/15 10:48:25;;;;;;;3.80;1.67;;;24.80;49.10;;;;;;7401441;19;19922;-75
2023/06/15 10:51:03;;;;;;;5.85;1.73;;;24.80;48.70;;;;;;7405002;19;19929;-75
2023/06/15 10:53:39;;;;;;;3.17;1.95;;;24.80;48.50;;;;;;7404314;19;19927;-75
2023/06/15 10:56:15;;;;;;;4.13;2.45;;;24.90;48.70;;;;;;7404010;19;19923;-75
2023/06/15 10:58:57;;;;;;;5.28;1.85;;;24.90;48.40;;;;;;7402494;19;19977;-75
2023/06/15 11:01:27;;;;;;;4.57;1.80;;;24.90;48.40;;;;;;7402260;19;19936;-75
2023/06/15 11:04:01;;;;;;;4.63;1.85;;;24.90;48.40;;;;;;7398962;19;19942;-74
2023/06/15 11:06:35;;;;;;;4.47;1.98;;;24.90;48.30;;;;;;7401931;19;19938;-75
2023/06/15 11:09:09;;;;;;;3.58;1.98;;;24.90;48.30;;;;;;7402148;19;20362;-74
2023/06/15 11:11:39;;;;;;;4.03;2.20;;;24.90;48.10;;;;;;7401691;19;19919;-75
2023/06/15 11:14:10;;;;;;;5.13;2.05;;;24.90;48.20;;;;;;7400506;19;19926;-75
2023/06/15 11:16:40;;;;;;;4.38;1.52;;;24.90;48.10;;;;;;7399636;19;19927;-75
2023/06/15 11:19:26;;;;;;;4.53;1.70;;;24.90;48.00;;;;;;7401590;19;19998;-75
2023/06/15 11:22:01;;;;;;;5.18;1.70;;;25.00;48.00;;;;;;7402594;19;19977;-74
2023/06/15 11:24:36;;;;;;;4.13;1.90;;;25.00;48.10;;;;;;7403583;19;19942;-73
2023/06/15 11:27:08;;;;;;;3.30;1.85;;;25.00;48.10;;;;;;7397848;19;20037;-75
2023/06/15 11:29:40;;;;;;;5.22;2.97;;;25.00;48.00;;;;;;7395721;19;20317;-75
2023/06/15 11:32:11;;;;;;;4.80;1.63;;;25.10;47.90;;;;;;7399167;19;20296;-75
2023/06/15 11:34:40;;;;;;;3.90;1.85;;;25.10;47.90;;;;;;7400730;19;19977;-75
2023/06/15 11:37:12;;;;;;;3.25;1.73;;;25.10;47.70;;;;;;7400471;19;19926;-75
2023/06/15 11:39:46;;;;;;;5.22;1.67;;;25.10;47.70;;;;;;7400528;19;19926;-75
2023/06/15 11:42:16;;;;;;;3.00;1.45;;;25.10;47.50;;;;;;7400879;19;19919;-75
2023/06/15 11:44:49;;;;;;;3.25;2.08;;;25.20;47.50;;;;;;7402019;19;20330;-75
2023/06/15 11:47:19;;;;;;;4.38;1.55;;;25.20;47.40;;;;;;7400572;19;19919;-75
2023/06/15 11:49:49;;;;;;;3.60;1.77;;;25.20;47.30;;;;;;7400380;19;19922;-76
2023/06/15 11:52:18;;;;;;;2.78;1.63;;;25.20;47.20;;;;;;7400491;19;20351;-75
2023/06/15 11:54:50;;;;;;;3.25;1.88;;;25.30;47.20;;;;;;7404600;19;19918;-75
2023/06/15 11:57:20;;;;;;;4.68;1.42;;;25.30;47.00;;;;;;7402295;19;19922;-76
2023/06/15 11:59:49;;;;;;;2.88;1.63;;;25.30;47.10;;;;;;7407137;19;19922;-75
2023/06/15 12:02:18;;;;;;;4.70;1.90;;;25.40;47.20;;;;;;7404751;19;19929;-75
2023/06/15 12:04:49;;;;;;;4.05;2.65;;;25.40;47.20;;;;;;7409027;19;20253;-75
2023/06/15 12:07:19;;;;;;;2.95;1.85;;;25.40;47.20;;;;;;7406534;19;19915;-75
2023/06/15 12:09:51;;;;;;;;;;;25.50;47.20;;;;;;7410835;19;19921;-75
2023/06/15 12:12:33;;;;;;;4.88;1.38;;;25.40;47.80;;;;;;7407097;19;19922;-75
2023/06/15 12:15:03;;;;;;;2.90;1.65;;;25.50;47.00;;;;;;7406711;19;19923;-76
2023/06/15 12:17:33;;;;;;;5.32;3.55;;;25.50;46.80;;;;;;7404842;19;20292;-75
2023/06/15 12:20:04;;;;;;;3.50;1.67;;;25.50;46.70;;;;;;7407331;19;19922;-75
2023/06/15 12:22:39;;;;;;;3.90;1.60;;;25.50;46.50;;;;;;7405695;19;19926;-75
2023/06/15 12:25:12;;;;;;;4.88;1.83;;;25.60;46.50;;;;;;7405819;19;19922;-75
2023/06/15 12:27:45;;;;;;;4.88;2.92;;;25.60;46.30;;;;;;7407061;19;20281;-75
2023/06/15 12:30:17;;;;;;;4.20;1.52;;;25.60;46.20;;;;;;7401679;19;19922;-75
2023/06/15 12:32:48;;;;;;;4.82;1.58;;;25.70;46.20;;;;;;7406721;19;19941;-76
2023/06/15 12:35:32;;;;;;;2.75;1.50;;;25.70;46.10;;;;;;7405558;19;20325;-75
2023/06/15 12:38:01;;;;;;;5.03;2.30;;;25.70;45.80;;;;;;7403769;19;19932;-75
2023/06/15 12:40:34;;;;;;;3.65;1.75;;;25.70;45.90;;;;;;7404905;19;19947;-75
2023/06/15 12:43:04;;;;;;;3.10;1.33;;;25.70;45.70;;;;;;7404180;19;19919;-76
2023/06/15 12:45:34;;;;;;;5.10;2.40;;;25.80;45.60;;;;;;7405678;19;20249;-75
2023/06/15 12:48:04;;;;;;;4.05;1.58;;;25.80;45.70;;;;;;7405617;19;19958;-75
2023/06/15 12:50:34;;;;;;;4.43;1.42;;;25.80;45.80;;;;;;7406429;19;20347;-75
2023/06/15 12:53:04;;;;;;;3.08;2.67;;;25.90;45.90;;;;;;7405107;19;20261;-75
2023/06/15 12:55:36;;;;;;;4.40;2.28;;;25.90;45.90;;;;;;7406427;19;20318;-76
2023/06/15 12:58:06;;;;;;;3.03;1.35;;;25.90;45.80;;;;;;7404123;19;19986;-75
2023/06/15 13:00:35;;;;;;;3.78;1.63;;;25.90;45.70;;;;;;7407143;19;20023;-76
2023/06/15 13:03:05;;;;;;;3.35;1.80;;;25.90;45.80;;;;;;7405454;19;19926;-76
2023/06/15 13:05:35;;;;;;;5.28;2.65;;;25.90;45.80;;;;;;7405326;19;20276;-76
2023/06/15 13:08:06;;;;;;;6.00;1.90;;;26.00;46.00;;;;;;7405115;19;20401;-75
2023/06/15 13:10:38;;;;;;;3.60;2.05;;;26.00;46.10;;;;;;7406665;19;19926;-76